sensor_id;sensor_type;location;lat;lon;timestamp;P1;durP1;ratioP1;P2;durP2;ratioP2
16153;SDS011;8182;55.648;13.208;2023-08-21T00:01:18;8.17;;;4.40;;
16153;SDS011;8182;55.648;13.208;2023-08-21T00:03:45;7.60;;;4.10;;
16153;SDS011;8182;55.648;13.208;2023-08-21T00:06:15;7.37;;;4.13;;
16153;SDS011;8182;55.648;13.208;2023-08-21T00:08:46;6.17;;;4.40;;
16153;SDS011;8182;55.648;13.208;2023-08-21T00:11:14;4.80;;;3.83;;
16153;SDS011;8182;55.648;13.208;2023-08-21T00:13:51;10.53;;;4.20;;
16153;SDS011;8182;55.648;13.208;2023-08-21T00:16:22;5.07;;;4.20;;
16153;SDS011;8182;55.648;13.208;2023-08-21T00:19:00;5.33;;;4.30;;
16153;SDS011;8182;55.648;13.208;2023-08-21T00:21:37;10.67;;;4.20;;
16153;SDS011;8182;55.648;13.208;2023-08-21T00:24:22;7.30;;;3.90;;
16153;SDS011;8182;55.648;13.208;2023-08-21T00:26:49;6.53;;;3.90;;
16153;SDS011;8182;55.648;13.208;2023-08-21T00:29:16;5.00;;;4.10;;
16153;SDS011;8182;55.648;13.208;2023-08-21T00:31:46;6.50;;;4.20;;
16153;SDS011;8182;55.648;13.208;2023-08-21T00:34:13;4.60;;;3.90;;
16153;SDS011;8182;55.648;13.208;2023-08-21T00:36:43;4.33;;;3.60;;
16153;SDS011;8182;55.648;13.208;2023-08-21T00:39:22;6.00;;;3.97;;
16153;SDS011;8182;55.648;13.208;2023-08-21T00:41:49;7.27;;;4.30;;
16153;SDS011;8182;55.648;13.208;2023-08-21T00:44:21;6.07;;;4.03;;
16153;SDS011;8182;55.648;13.208;2023-08-21T00:46:52;5.77;;;3.67;;
16153;SDS011;8182;55.648;13.208;2023-08-21T00:49:23;6.03;;;3.77;;
16153;SDS011;8182;55.648;13.208;2023-08-21T00:51:53;4.67;;;4.10;;
16153;SDS011;8182;55.648;13.208;2023-08-21T00:54:29;6.67;;;4.07;;
16153;SDS011;8182;55.648;13.208;2023-08-21T00:56:56;5.50;;;3.83;;
16153;SDS011;8182;55.648;13.208;2023-08-21T00:59:23;7.93;;;4.00;;
16153;SDS011;8182;55.648;13.208;2023-08-21T01:02:05;7.60;;;4.47;;
16153;SDS011;8182;55.648;13.208;2023-08-21T01:04:36;6.03;;;3.67;;
16153;SDS011;8182;55.648;13.208;2023-08-21T01:09:50;4.47;;;4.00;;
16153;SDS011;8182;55.648;13.208;2023-08-21T01:12:23;5.47;;;3.67;;
16153;SDS011;8182;55.648;13.208;2023-08-21T01:15:03;4.90;;;4.00;;
16153;SDS011;8182;55.648;13.208;2023-08-21T01:17:47;6.90;;;4.13;;
16153;SDS011;8182;55.648;13.208;2023-08-21T01:20:18;5.60;;;3.77;;
16153;SDS011;8182;55.648;13.208;2023-08-21T01:22:47;5.77;;;4.10;;
16153;SDS011;8182;55.648;13.208;2023-08-21T01:25:17;4.53;;;3.77;;
16153;SDS011;8182;55.648;13.208;2023-08-21T01:27:46;5.30;;;3.80;;
16153;SDS011;8182;55.648;13.208;2023-08-21T01:30:18;7.10;;;4.00;;
16153;SDS011;8182;55.648;13.208;2023-08-21T01:32:47;5.17;;;3.50;;
16153;SDS011;8182;55.648;13.208;2023-08-21T01:35:25;6.17;;;3.80;;
16153;SDS011;8182;55.648;13.208;2023-08-21T01:37:55;8.23;;;3.73;;
16153;SDS011;8182;55.648;13.208;2023-08-21T01:40:25;5.00;;;3.90;;
16153;SDS011;8182;55.648;13.208;2023-08-21T01:42:54;8.33;;;4.23;;
16153;SDS011;8182;55.648;13.208;2023-08-21T01:45:22;7.17;;;3.97;;
16153;SDS011;8182;55.648;13.208;2023-08-21T01:47:52;4.83;;;3.70;;
16153;SDS011;8182;55.648;13.208;2023-08-21T01:50:22;4.70;;;3.43;;
16153;SDS011;8182;55.648;13.208;2023-08-21T01:52:49;8.00;;;4.10;;
16153;SDS011;8182;55.648;13.208;2023-08-21T01:55:27;4.37;;;3.83;;
16153;SDS011;8182;55.648;13.208;2023-08-21T01:58:09;6.23;;;3.67;;
16153;SDS011;8182;55.648;13.208;2023-08-21T02:03:31;3.83;;;3.43;;
16153;SDS011;8182;55.648;13.208;2023-08-21T02:05:59;5.13;;;3.50;;
16153;SDS011;8182;55.648;13.208;2023-08-21T02:08:30;4.90;;;3.43;;
16153;SDS011;8182;55.648;13.208;2023-08-21T02:11:01;8.17;;;3.73;;
16153;SDS011;8182;55.648;13.208;2023-08-21T02:13:31;5.67;;;3.23;;
16153;SDS011;8182;55.648;13.208;2023-08-21T02:15:58;9.70;;;3.57;;
16153;SDS011;8182;55.648;13.208;2023-08-21T02:18:31;5.83;;;3.23;;
16153;SDS011;8182;55.648;13.208;2023-08-21T02:21:00;9.07;;;3.27;;
16153;SDS011;8182;55.648;13.208;2023-08-21T02:23:26;4.17;;;3.27;;
16153;SDS011;8182;55.648;13.208;2023-08-21T02:26:06;6.43;;;3.00;;
16153;SDS011;8182;55.648;13.208;2023-08-21T02:28:45;3.13;;;2.83;;
16153;SDS011;8182;55.648;13.208;2023-08-21T02:31:13;3.67;;;2.97;;
16153;SDS011;8182;55.648;13.208;2023-08-21T02:33:45;5.63;;;3.23;;
16153;SDS011;8182;55.648;13.208;2023-08-21T02:36:12;5.37;;;2.70;;
16153;SDS011;8182;55.648;13.208;2023-08-21T02:38:46;6.37;;;3.17;;
16153;SDS011;8182;55.648;13.208;2023-08-21T02:41:15;4.73;;;3.07;;
16153;SDS011;8182;55.648;13.208;2023-08-21T02:43:48;4.63;;;2.80;;
16153;SDS011;8182;55.648;13.208;2023-08-21T02:46:31;2.80;;;2.60;;
16153;SDS011;8182;55.648;13.208;2023-08-21T02:49:43;5.43;;;2.80;;
16153;SDS011;8182;55.648;13.208;2023-08-21T02:52:23;3.83;;;3.10;;
16153;SDS011;8182;55.648;13.208;2023-08-21T02:54:53;4.07;;;3.17;;
16153;SDS011;8182;55.648;13.208;2023-08-21T02:57:22;5.23;;;2.90;;
16153;SDS011;8182;55.648;13.208;2023-08-21T02:59:56;4.60;;;2.67;;
16153;SDS011;8182;55.648;13.208;2023-08-21T03:02:29;6.43;;;2.80;;
16153;SDS011;8182;55.648;13.208;2023-08-21T03:04:57;2.30;;;2.10;;
16153;SDS011;8182;55.648;13.208;2023-08-21T03:07:24;5.60;;;2.50;;
16153;SDS011;8182;55.648;13.208;2023-08-21T03:09:51;6.00;;;2.50;;
16153;SDS011;8182;55.648;13.208;2023-08-21T03:12:44;4.63;;;2.60;;
16153;SDS011;8182;55.648;13.208;2023-08-21T03:15:13;4.70;;;2.60;;
16153;SDS011;8182;55.648;13.208;2023-08-21T03:17:45;3.30;;;2.20;;
16153;SDS011;8182;55.648;13.208;2023-08-21T03:20:20;4.20;;;2.40;;
16153;SDS011;8182;55.648;13.208;2023-08-21T03:22:54;4.43;;;2.40;;
16153;SDS011;8182;55.648;13.208;2023-08-21T03:25:22;5.03;;;2.40;;
16153;SDS011;8182;55.648;13.208;2023-08-21T03:28:06;4.90;;;2.60;;
16153;SDS011;8182;55.648;13.208;2023-08-21T03:30:34;5.50;;;2.50;;
16153;SDS011;8182;55.648;13.208;2023-08-21T03:33:04;5.30;;;2.73;;
16153;SDS011;8182;55.648;13.208;2023-08-21T03:35:32;4.83;;;2.20;;
16153;SDS011;8182;55.648;13.208;2023-08-21T03:38:28;2.80;;;2.27;;
16153;SDS011;8182;55.648;13.208;2023-08-21T03:40:55;3.30;;;2.27;;
16153;SDS011;8182;55.648;13.208;2023-08-21T03:43:23;6.20;;;2.80;;
16153;SDS011;8182;55.648;13.208;2023-08-21T03:46:07;2.70;;;2.20;;
16153;SDS011;8182;55.648;13.208;2023-08-21T03:48:51;8.63;;;2.70;;
16153;SDS011;8182;55.648;13.208;2023-08-21T03:51:22;5.30;;;2.43;;
16153;SDS011;8182;55.648;13.208;2023-08-21T03:54:04;4.30;;;2.43;;
16153;SDS011;8182;55.648;13.208;2023-08-21T03:56:35;3.83;;;2.57;;
16153;SDS011;8182;55.648;13.208;2023-08-21T03:59:05;5.43;;;2.30;;
16153;SDS011;8182;55.648;13.208;2023-08-21T04:01:42;4.47;;;2.30;;
16153;SDS011;8182;55.648;13.208;2023-08-21T04:04:09;3.13;;;2.07;;
16153;SDS011;8182;55.648;13.208;2023-08-21T04:12:36;4.07;;;2.10;;
16153;SDS011;8182;55.648;13.208;2023-08-21T04:15:11;4.63;;;2.10;;
16153;SDS011;8182;55.648;13.208;2023-08-21T04:17:39;3.23;;;2.00;;
16153;SDS011;8182;55.648;13.208;2023-08-21T04:20:07;4.23;;;2.07;;
16153;SDS011;8182;55.648;13.208;2023-08-21T04:22:47;4.20;;;1.83;;
16153;SDS011;8182;55.648;13.208;2023-08-21T04:25:18;5.93;;;2.37;;
16153;SDS011;8182;55.648;13.208;2023-08-21T04:27:50;3.20;;;2.07;;
16153;SDS011;8182;55.648;13.208;2023-08-21T04:30:32;5.53;;;1.90;;
16153;SDS011;8182;55.648;13.208;2023-08-21T04:33:22;5.53;;;2.20;;
16153;SDS011;8182;55.648;13.208;2023-08-21T04:35:57;5.17;;;1.90;;
16153;SDS011;8182;55.648;13.208;2023-08-21T04:38:40;2.83;;;2.30;;
16153;SDS011;8182;55.648;13.208;2023-08-21T04:41:30;5.00;;;2.57;;
16153;SDS011;8182;55.648;13.208;2023-08-21T04:44:02;8.10;;;2.90;;
16153;SDS011;8182;55.648;13.208;2023-08-21T04:46:36;3.90;;;2.60;;
16153;SDS011;8182;55.648;13.208;2023-08-21T04:49:05;4.70;;;2.50;;
16153;SDS011;8182;55.648;13.208;2023-08-21T04:51:49;5.70;;;2.90;;
16153;SDS011;8182;55.648;13.208;2023-08-21T04:54:16;6.13;;;2.80;;
16153;SDS011;8182;55.648;13.208;2023-08-21T04:56:46;4.27;;;2.80;;
16153;SDS011;8182;55.648;13.208;2023-08-21T04:59:13;8.03;;;2.67;;
16153;SDS011;8182;55.648;13.208;2023-08-21T05:01:45;4.80;;;2.90;;
16153;SDS011;8182;55.648;13.208;2023-08-21T05:04:14;3.37;;;2.60;;
16153;SDS011;8182;55.648;13.208;2023-08-21T05:06:46;6.00;;;2.80;;
16153;SDS011;8182;55.648;13.208;2023-08-21T05:09:16;3.43;;;2.57;;
16153;SDS011;8182;55.648;13.208;2023-08-21T05:11:46;5.73;;;3.20;;
16153;SDS011;8182;55.648;13.208;2023-08-21T05:14:19;5.60;;;2.77;;
16153;SDS011;8182;55.648;13.208;2023-08-21T05:16:48;4.23;;;2.90;;
16153;SDS011;8182;55.648;13.208;2023-08-21T05:19:15;9.27;;;3.37;;
16153;SDS011;8182;55.648;13.208;2023-08-21T05:21:45;10.33;;;4.10;;
16153;SDS011;8182;55.648;13.208;2023-08-21T05:24:17;8.20;;;3.70;;
16153;SDS011;8182;55.648;13.208;2023-08-21T05:26:50;6.23;;;4.10;;
16153;SDS011;8182;55.648;13.208;2023-08-21T05:29:17;9.30;;;4.50;;
16153;SDS011;8182;55.648;13.208;2023-08-21T05:31:45;9.87;;;4.80;;
16153;SDS011;8182;55.648;13.208;2023-08-21T05:34:38;11.10;;;4.20;;
16153;SDS011;8182;55.648;13.208;2023-08-21T05:37:38;13.87;;;5.17;;
16153;SDS011;8182;55.648;13.208;2023-08-21T05:40:14;9.30;;;4.40;;
16153;SDS011;8182;55.648;13.208;2023-08-21T05:43:01;11.17;;;4.70;;
16153;SDS011;8182;55.648;13.208;2023-08-21T05:45:49;13.83;;;5.17;;
16153;SDS011;8182;55.648;13.208;2023-08-21T05:48:21;9.27;;;4.60;;
16153;SDS011;8182;55.648;13.208;2023-08-21T05:51:04;10.60;;;3.70;;
16153;SDS011;8182;55.648;13.208;2023-08-21T05:53:33;9.67;;;3.90;;
16153;SDS011;8182;55.648;13.208;2023-08-21T05:56:16;8.23;;;4.23;;
16153;SDS011;8182;55.648;13.208;2023-08-21T05:58:44;12.90;;;4.73;;
16153;SDS011;8182;55.648;13.208;2023-08-21T06:01:15;9.57;;;4.47;;
16153;SDS011;8182;55.648;13.208;2023-08-21T06:03:46;12.07;;;4.10;;
16153;SDS011;8182;55.648;13.208;2023-08-21T06:06:16;11.93;;;4.53;;
16153;SDS011;8182;55.648;13.208;2023-08-21T06:08:46;10.93;;;3.97;;
16153;SDS011;8182;55.648;13.208;2023-08-21T06:11:21;7.37;;;3.63;;
16153;SDS011;8182;55.648;13.208;2023-08-21T06:13:48;9.60;;;4.03;;
16153;SDS011;8182;55.648;13.208;2023-08-21T06:16:29;10.60;;;3.93;;
16153;SDS011;8182;55.648;13.208;2023-08-21T06:18:59;10.67;;;3.53;;
16153;SDS011;8182;55.648;13.208;2023-08-21T06:21:31;9.17;;;3.50;;
16153;SDS011;8182;55.648;13.208;2023-08-21T06:24:06;9.57;;;3.57;;
16153;SDS011;8182;55.648;13.208;2023-08-21T06:26:40;8.93;;;3.63;;
16153;SDS011;8182;55.648;13.208;2023-08-21T06:29:07;7.07;;;2.80;;
16153;SDS011;8182;55.648;13.208;2023-08-21T06:31:41;8.10;;;3.20;;
16153;SDS011;8182;55.648;13.208;2023-08-21T06:34:09;10.23;;;2.80;;
16153;SDS011;8182;55.648;13.208;2023-08-21T06:36:47;7.50;;;2.70;;
16153;SDS011;8182;55.648;13.208;2023-08-21T06:39:15;8.87;;;2.67;;
16153;SDS011;8182;55.648;13.208;2023-08-21T06:41:48;6.87;;;2.63;;
16153;SDS011;8182;55.648;13.208;2023-08-21T06:44:26;5.77;;;2.47;;
16153;SDS011;8182;55.648;13.208;2023-08-21T06:46:54;5.83;;;2.47;;
16153;SDS011;8182;55.648;13.208;2023-08-21T06:49:21;6.47;;;2.50;;
16153;SDS011;8182;55.648;13.208;2023-08-21T06:51:50;6.63;;;2.90;;
16153;SDS011;8182;55.648;13.208;2023-08-21T06:54:23;6.27;;;2.47;;
16153;SDS011;8182;55.648;13.208;2023-08-21T06:56:50;8.43;;;2.63;;
16153;SDS011;8182;55.648;13.208;2023-08-21T06:59:20;8.33;;;2.50;;
16153;SDS011;8182;55.648;13.208;2023-08-21T07:01:48;7.87;;;2.27;;
16153;SDS011;8182;55.648;13.208;2023-08-21T07:04:16;6.63;;;2.07;;
16153;SDS011;8182;55.648;13.208;2023-08-21T07:06:45;7.33;;;2.20;;
16153;SDS011;8182;55.648;13.208;2023-08-21T07:09:14;5.70;;;2.03;;
16153;SDS011;8182;55.648;13.208;2023-08-21T07:11:42;7.20;;;2.23;;
16153;SDS011;8182;55.648;13.208;2023-08-21T07:14:09;6.23;;;2.23;;
16153;SDS011;8182;55.648;13.208;2023-08-21T07:16:39;5.13;;;2.03;;
16153;SDS011;8182;55.648;13.208;2023-08-21T07:19:06;6.27;;;2.10;;
16153;SDS011;8182;55.648;13.208;2023-08-21T07:21:34;7.60;;;2.30;;
16153;SDS011;8182;55.648;13.208;2023-08-21T07:24:03;5.73;;;2.00;;
16153;SDS011;8182;55.648;13.208;2023-08-21T07:26:32;8.63;;;2.07;;
16153;SDS011;8182;55.648;13.208;2023-08-21T07:28:59;6.03;;;2.10;;
16153;SDS011;8182;55.648;13.208;2023-08-21T07:31:29;5.83;;;1.90;;
16153;SDS011;8182;55.648;13.208;2023-08-21T07:33:59;5.27;;;2.00;;
16153;SDS011;8182;55.648;13.208;2023-08-21T07:36:26;6.63;;;1.67;;
16153;SDS011;8182;55.648;13.208;2023-08-21T07:38:53;7.73;;;2.43;;
16153;SDS011;8182;55.648;13.208;2023-08-21T07:41:20;3.93;;;1.77;;
16153;SDS011;8182;55.648;13.208;2023-08-21T07:43:50;5.57;;;2.10;;
16153;SDS011;8182;55.648;13.208;2023-08-21T07:46:21;5.50;;;1.60;;
16153;SDS011;8182;55.648;13.208;2023-08-21T07:48:49;6.77;;;1.70;;
16153;SDS011;8182;55.648;13.208;2023-08-21T07:51:19;6.20;;;2.20;;
16153;SDS011;8182;55.648;13.208;2023-08-21T07:53:46;4.67;;;1.97;;
16153;SDS011;8182;55.648;13.208;2023-08-21T07:56:14;6.10;;;1.70;;
16153;SDS011;8182;55.648;13.208;2023-08-21T07:58:50;5.23;;;1.73;;
16153;SDS011;8182;55.648;13.208;2023-08-21T08:01:22;5.90;;;2.07;;
16153;SDS011;8182;55.648;13.208;2023-08-21T08:03:49;8.80;;;2.10;;
16153;SDS011;8182;55.648;13.208;2023-08-21T08:06:23;5.43;;;1.70;;
16153;SDS011;8182;55.648;13.208;2023-08-21T08:08:50;7.50;;;1.90;;
16153;SDS011;8182;55.648;13.208;2023-08-21T08:11:18;9.60;;;1.80;;
16153;SDS011;8182;55.648;13.208;2023-08-21T08:13:50;7.40;;;2.13;;
16153;SDS011;8182;55.648;13.208;2023-08-21T08:16:23;7.13;;;1.90;;
16153;SDS011;8182;55.648;13.208;2023-08-21T08:18:53;6.23;;;1.70;;
16153;SDS011;8182;55.648;13.208;2023-08-21T08:21:22;7.73;;;2.00;;
16153;SDS011;8182;55.648;13.208;2023-08-21T08:23:49;5.23;;;2.07;;
16153;SDS011;8182;55.648;13.208;2023-08-21T08:26:16;9.17;;;2.17;;
16153;SDS011;8182;55.648;13.208;2023-08-21T08:28:46;6.50;;;1.93;;
16153;SDS011;8182;55.648;13.208;2023-08-21T08:31:18;5.30;;;1.77;;
16153;SDS011;8182;55.648;13.208;2023-08-21T08:33:47;5.40;;;1.77;;
16153;SDS011;8182;55.648;13.208;2023-08-21T08:36:20;6.67;;;1.80;;
16153;SDS011;8182;55.648;13.208;2023-08-21T08:38:48;7.03;;;1.73;;
16153;SDS011;8182;55.648;13.208;2023-08-21T08:41:48;5.37;;;1.30;;
16153;SDS011;8182;55.648;13.208;2023-08-21T08:44:24;6.83;;;1.80;;
16153;SDS011;8182;55.648;13.208;2023-08-21T08:47:04;5.13;;;1.50;;
16153;SDS011;8182;55.648;13.208;2023-08-21T08:49:35;4.13;;;1.47;;
16153;SDS011;8182;55.648;13.208;2023-08-21T08:52:06;4.67;;;1.40;;
16153;SDS011;8182;55.648;13.208;2023-08-21T08:54:33;4.33;;;1.80;;
16153;SDS011;8182;55.648;13.208;2023-08-21T08:57:03;5.97;;;1.60;;
16153;SDS011;8182;55.648;13.208;2023-08-21T08:59:32;5.87;;;1.50;;
16153;SDS011;8182;55.648;13.208;2023-08-21T09:01:59;2.47;;;1.30;;
16153;SDS011;8182;55.648;13.208;2023-08-21T09:04:32;5.47;;;1.60;;
16153;SDS011;8182;55.648;13.208;2023-08-21T09:07:05;3.47;;;1.23;;
16153;SDS011;8182;55.648;13.208;2023-08-21T09:09:37;2.97;;;1.10;;
16153;SDS011;8182;55.648;13.208;2023-08-21T09:12:08;4.13;;;1.40;;
16153;SDS011;8182;55.648;13.208;2023-08-21T09:14:38;5.53;;;1.40;;
16153;SDS011;8182;55.648;13.208;2023-08-21T09:17:08;5.57;;;1.50;;
16153;SDS011;8182;55.648;13.208;2023-08-21T09:19:36;4.03;;;1.33;;
16153;SDS011;8182;55.648;13.208;2023-08-21T09:22:10;5.13;;;1.50;;
16153;SDS011;8182;55.648;13.208;2023-08-21T09:24:40;3.43;;;1.37;;
16153;SDS011;8182;55.648;13.208;2023-08-21T09:27:23;5.43;;;1.40;;
16153;SDS011;8182;55.648;13.208;2023-08-21T09:29:54;4.87;;;1.57;;
16153;SDS011;8182;55.648;13.208;2023-08-21T09:32:22;6.03;;;1.50;;
16153;SDS011;8182;55.648;13.208;2023-08-21T09:34:49;4.93;;;1.37;;
16153;SDS011;8182;55.648;13.208;2023-08-21T09:37:16;2.33;;;1.03;;
16153;SDS011;8182;55.648;13.208;2023-08-21T09:39:43;4.73;;;1.57;;
16153;SDS011;8182;55.648;13.208;2023-08-21T09:42:11;5.10;;;1.43;;
16153;SDS011;8182;55.648;13.208;2023-08-21T09:44:40;7.53;;;1.57;;
16153;SDS011;8182;55.648;13.208;2023-08-21T09:47:08;4.67;;;1.40;;
16153;SDS011;8182;55.648;13.208;2023-08-21T09:49:38;4.07;;;1.20;;
16153;SDS011;8182;55.648;13.208;2023-08-21T09:52:09;3.73;;;1.37;;
16153;SDS011;8182;55.648;13.208;2023-08-21T09:54:37;5.23;;;1.30;;
16153;SDS011;8182;55.648;13.208;2023-08-21T09:57:04;4.10;;;1.20;;
16153;SDS011;8182;55.648;13.208;2023-08-21T09:59:32;3.13;;;1.20;;
16153;SDS011;8182;55.648;13.208;2023-08-21T10:01:59;4.43;;;0.93;;
16153;SDS011;8182;55.648;13.208;2023-08-21T10:04:28;4.90;;;1.20;;
16153;SDS011;8182;55.648;13.208;2023-08-21T10:06:58;1.37;;;0.90;;
16153;SDS011;8182;55.648;13.208;2023-08-21T10:09:28;2.50;;;1.40;;
16153;SDS011;8182;55.648;13.208;2023-08-21T10:12:00;4.50;;;1.47;;
16153;SDS011;8182;55.648;13.208;2023-08-21T10:14:28;4.37;;;1.30;;
16153;SDS011;8182;55.648;13.208;2023-08-21T10:16:55;4.73;;;1.23;;
16153;SDS011;8182;55.648;13.208;2023-08-21T10:19:32;3.07;;;1.30;;
16153;SDS011;8182;55.648;13.208;2023-08-21T10:22:02;2.87;;;1.00;;
16153;SDS011;8182;55.648;13.208;2023-08-21T10:24:33;3.53;;;1.00;;
16153;SDS011;8182;55.648;13.208;2023-08-21T10:27:02;2.17;;;0.93;;
16153;SDS011;8182;55.648;13.208;2023-08-21T10:29:29;5.13;;;1.20;;
16153;SDS011;8182;55.648;13.208;2023-08-21T10:32:00;3.30;;;1.00;;
16153;SDS011;8182;55.648;13.208;2023-08-21T10:34:32;3.50;;;1.07;;
16153;SDS011;8182;55.648;13.208;2023-08-21T10:37:07;4.60;;;1.50;;
16153;SDS011;8182;55.648;13.208;2023-08-21T10:39:39;3.20;;;1.20;;
16153;SDS011;8182;55.648;13.208;2023-08-21T10:42:19;3.63;;;1.00;;
16153;SDS011;8182;55.648;13.208;2023-08-21T10:45:09;3.60;;;1.13;;
16153;SDS011;8182;55.648;13.208;2023-08-21T10:47:37;5.20;;;1.13;;
16153;SDS011;8182;55.648;13.208;2023-08-21T10:50:16;3.47;;;1.20;;
16153;SDS011;8182;55.648;13.208;2023-08-21T10:52:46;4.03;;;1.10;;
16153;SDS011;8182;55.648;13.208;2023-08-21T10:55:15;2.70;;;1.20;;
16153;SDS011;8182;55.648;13.208;2023-08-21T10:57:45;2.63;;;1.20;;
16153;SDS011;8182;55.648;13.208;2023-08-21T11:00:14;2.83;;;0.97;;
16153;SDS011;8182;55.648;13.208;2023-08-21T11:02:43;2.77;;;1.10;;
16153;SDS011;8182;55.648;13.208;2023-08-21T11:05:12;3.33;;;1.13;;
16153;SDS011;8182;55.648;13.208;2023-08-21T11:07:43;3.53;;;1.10;;
16153;SDS011;8182;55.648;13.208;2023-08-21T11:10:17;3.97;;;1.23;;
16153;SDS011;8182;55.648;13.208;2023-08-21T11:12:49;2.63;;;1.10;;
16153;SDS011;8182;55.648;13.208;2023-08-21T11:15:24;6.03;;;1.30;;
16153;SDS011;8182;55.648;13.208;2023-08-21T11:17:53;5.30;;;1.30;;
16153;SDS011;8182;55.648;13.208;2023-08-21T11:20:22;3.97;;;1.33;;
16153;SDS011;8182;55.648;13.208;2023-08-21T11:22:59;1.93;;;1.10;;
16153;SDS011;8182;55.648;13.208;2023-08-21T11:25:32;4.33;;;1.07;;
16153;SDS011;8182;55.648;13.208;2023-08-21T11:28:01;4.30;;;1.23;;
16153;SDS011;8182;55.648;13.208;2023-08-21T11:30:28;2.07;;;1.10;;
16153;SDS011;8182;55.648;13.208;2023-08-21T11:33:04;5.07;;;1.40;;
16153;SDS011;8182;55.648;13.208;2023-08-21T11:35:45;3.07;;;1.10;;
16153;SDS011;8182;55.648;13.208;2023-08-21T11:38:17;4.10;;;1.33;;
16153;SDS011;8182;55.648;13.208;2023-08-21T11:40:54;4.03;;;1.30;;
16153;SDS011;8182;55.648;13.208;2023-08-21T11:43:51;5.37;;;1.67;;
16153;SDS011;8182;55.648;13.208;2023-08-21T11:46:20;3.07;;;1.07;;
16153;SDS011;8182;55.648;13.208;2023-08-21T11:48:47;2.40;;;1.30;;
16153;SDS011;8182;55.648;13.208;2023-08-21T11:51:15;4.33;;;1.10;;
16153;SDS011;8182;55.648;13.208;2023-08-21T11:53:45;1.97;;;1.13;;
16153;SDS011;8182;55.648;13.208;2023-08-21T11:56:27;4.07;;;1.10;;
16153;SDS011;8182;55.648;13.208;2023-08-21T11:58:56;3.20;;;1.20;;
16153;SDS011;8182;55.648;13.208;2023-08-21T12:01:24;3.37;;;1.00;;
16153;SDS011;8182;55.648;13.208;2023-08-21T12:03:52;2.87;;;1.10;;
16153;SDS011;8182;55.648;13.208;2023-08-21T12:06:23;3.23;;;1.33;;
16153;SDS011;8182;55.648;13.208;2023-08-21T12:08:56;3.23;;;1.20;;
16153;SDS011;8182;55.648;13.208;2023-08-21T12:11:23;3.10;;;1.07;;
16153;SDS011;8182;55.648;13.208;2023-08-21T12:13:53;1.93;;;1.20;;
16153;SDS011;8182;55.648;13.208;2023-08-21T12:16:28;2.93;;;1.30;;
16153;SDS011;8182;55.648;13.208;2023-08-21T12:18:59;3.57;;;1.17;;
16153;SDS011;8182;55.648;13.208;2023-08-21T12:21:48;2.67;;;1.23;;
16153;SDS011;8182;55.648;13.208;2023-08-21T12:24:17;2.83;;;1.27;;
16153;SDS011;8182;55.648;13.208;2023-08-21T12:26:44;3.60;;;1.10;;
16153;SDS011;8182;55.648;13.208;2023-08-21T12:29:12;2.67;;;1.00;;
16153;SDS011;8182;55.648;13.208;2023-08-21T12:31:45;2.90;;;0.87;;
16153;SDS011;8182;55.648;13.208;2023-08-21T12:34:18;5.60;;;1.10;;
16153;SDS011;8182;55.648;13.208;2023-08-21T12:36:50;3.57;;;1.10;;
16153;SDS011;8182;55.648;13.208;2023-08-21T12:39:18;2.43;;;1.03;;
16153;SDS011;8182;55.648;13.208;2023-08-21T12:41:47;3.43;;;1.10;;
16153;SDS011;8182;55.648;13.208;2023-08-21T12:44:22;4.17;;;1.20;;
16153;SDS011;8182;55.648;13.208;2023-08-21T12:46:49;2.53;;;1.13;;
16153;SDS011;8182;55.648;13.208;2023-08-21T12:49:17;3.63;;;1.10;;
16153;SDS011;8182;55.648;13.208;2023-08-21T12:51:49;3.97;;;1.00;;
16153;SDS011;8182;55.648;13.208;2023-08-21T12:54:16;2.27;;;0.90;;
16153;SDS011;8182;55.648;13.208;2023-08-21T12:56:55;3.17;;;1.00;;
16153;SDS011;8182;55.648;13.208;2023-08-21T12:59:28;3.50;;;0.93;;
16153;SDS011;8182;55.648;13.208;2023-08-21T13:01:56;2.47;;;1.00;;
16153;SDS011;8182;55.648;13.208;2023-08-21T13:04:28;4.97;;;1.30;;
16153;SDS011;8182;55.648;13.208;2023-08-21T13:06:55;3.23;;;1.00;;
16153;SDS011;8182;55.648;13.208;2023-08-21T13:09:26;1.97;;;0.90;;
16153;SDS011;8182;55.648;13.208;2023-08-21T13:11:53;2.23;;;1.00;;
16153;SDS011;8182;55.648;13.208;2023-08-21T13:14:21;1.87;;;0.77;;
16153;SDS011;8182;55.648;13.208;2023-08-21T13:16:50;2.60;;;0.93;;
16153;SDS011;8182;55.648;13.208;2023-08-21T13:19:20;2.90;;;0.87;;
16153;SDS011;8182;55.648;13.208;2023-08-21T13:21:48;5.13;;;1.00;;
16153;SDS011;8182;55.648;13.208;2023-08-21T13:24:15;2.07;;;0.87;;
16153;SDS011;8182;55.648;13.208;2023-08-21T13:26:43;1.40;;;0.80;;
16153;SDS011;8182;55.648;13.208;2023-08-21T13:29:11;3.17;;;1.00;;
16153;SDS011;8182;55.648;13.208;2023-08-21T13:31:41;3.17;;;1.00;;
16153;SDS011;8182;55.648;13.208;2023-08-21T13:34:15;3.53;;;1.10;;
16153;SDS011;8182;55.648;13.208;2023-08-21T13:36:42;2.23;;;0.90;;
16153;SDS011;8182;55.648;13.208;2023-08-21T13:39:09;2.17;;;0.70;;
16153;SDS011;8182;55.648;13.208;2023-08-21T13:41:40;2.10;;;0.90;;
16153;SDS011;8182;55.648;13.208;2023-08-21T13:44:20;1.77;;;0.70;;
16153;SDS011;8182;55.648;13.208;2023-08-21T13:46:56;2.00;;;0.73;;
16153;SDS011;8182;55.648;13.208;2023-08-21T13:49:23;2.10;;;0.97;;
16153;SDS011;8182;55.648;13.208;2023-08-21T13:51:53;1.73;;;0.80;;
16153;SDS011;8182;55.648;13.208;2023-08-21T13:54:26;1.30;;;0.90;;
16153;SDS011;8182;55.648;13.208;2023-08-21T13:56:55;2.90;;;0.93;;
16153;SDS011;8182;55.648;13.208;2023-08-21T13:59:26;1.40;;;0.60;;
16153;SDS011;8182;55.648;13.208;2023-08-21T14:01:55;1.90;;;0.77;;
16153;SDS011;8182;55.648;13.208;2023-08-21T14:04:28;1.40;;;0.73;;
16153;SDS011;8182;55.648;13.208;2023-08-21T14:06:58;3.13;;;0.90;;
16153;SDS011;8182;55.648;13.208;2023-08-21T14:09:27;1.63;;;0.83;;
16153;SDS011;8182;55.648;13.208;2023-08-21T14:11:55;1.70;;;0.87;;
16153;SDS011;8182;55.648;13.208;2023-08-21T14:14:32;1.30;;;0.80;;
16153;SDS011;8182;55.648;13.208;2023-08-21T14:17:03;2.60;;;1.00;;
16153;SDS011;8182;55.648;13.208;2023-08-21T14:19:35;4.30;;;1.70;;
16153;SDS011;8182;55.648;13.208;2023-08-21T14:22:11;2.50;;;1.20;;
16153;SDS011;8182;55.648;13.208;2023-08-21T14:24:38;3.73;;;0.90;;
16153;SDS011;8182;55.648;13.208;2023-08-21T14:27:05;2.60;;;0.90;;
16153;SDS011;8182;55.648;13.208;2023-08-21T14:29:35;2.37;;;0.97;;
16153;SDS011;8182;55.648;13.208;2023-08-21T14:32:02;1.70;;;0.80;;
16153;SDS011;8182;55.648;13.208;2023-08-21T14:34:29;2.00;;;1.00;;
16153;SDS011;8182;55.648;13.208;2023-08-21T14:36:56;2.93;;;1.10;;
16153;SDS011;8182;55.648;13.208;2023-08-21T14:39:24;2.37;;;0.90;;
16153;SDS011;8182;55.648;13.208;2023-08-21T14:41:55;2.30;;;1.00;;
16153;SDS011;8182;55.648;13.208;2023-08-21T14:44:26;2.53;;;0.97;;
16153;SDS011;8182;55.648;13.208;2023-08-21T14:46:54;1.90;;;1.10;;
16153;SDS011;8182;55.648;13.208;2023-08-21T14:49:26;1.27;;;0.80;;
16153;SDS011;8182;55.648;13.208;2023-08-21T14:51:59;2.33;;;1.10;;
16153;SDS011;8182;55.648;13.208;2023-08-21T14:54:28;1.73;;;1.13;;
16153;SDS011;8182;55.648;13.208;2023-08-21T14:56:55;3.47;;;0.90;;
16153;SDS011;8182;55.648;13.208;2023-08-21T14:59:22;2.77;;;1.00;;
16153;SDS011;8182;55.648;13.208;2023-08-21T15:01:55;1.57;;;0.90;;
16153;SDS011;8182;55.648;13.208;2023-08-21T15:04:21;2.33;;;1.00;;
16153;SDS011;8182;55.648;13.208;2023-08-21T15:06:49;2.70;;;1.00;;
16153;SDS011;8182;55.648;13.208;2023-08-21T15:09:15;3.27;;;1.30;;
16153;SDS011;8182;55.648;13.208;2023-08-21T15:11:46;2.20;;;1.10;;
16153;SDS011;8182;55.648;13.208;2023-08-21T15:14:18;2.70;;;1.20;;
16153;SDS011;8182;55.648;13.208;2023-08-21T15:16:45;2.70;;;1.10;;
16153;SDS011;8182;55.648;13.208;2023-08-21T15:19:21;3.43;;;1.30;;
16153;SDS011;8182;55.648;13.208;2023-08-21T15:21:51;3.00;;;1.20;;
16153;SDS011;8182;55.648;13.208;2023-08-21T15:24:18;2.13;;;1.10;;
16153;SDS011;8182;55.648;13.208;2023-08-21T15:26:45;2.87;;;1.30;;